Flight Track Log - Related Links

Times and Time Zones

All times are in EDT time to prevent confusion due to time zone crossing. See the THY9 flight status page for this flight to view local times or setup timezone preferences in your user account.

Time Position Orientation Groundspeed Altitude Reporting Facility
EDT Latitude Longitude Course Direction KTS MPH feet Rate Location/Type
Thu 06:10:52 AM 41.0810 28.8030 344° North 235 270 3,000  Level FlightAware
Thu 06:11:12 AM 41.1000 28.7890 331° Northwest 251 289 3,500 1,900 Climbing FlightAware
Thu 06:11:52 AM 41.1400 28.7550 327° Northwest 271 312 4,900 2,215 Climbing FlightAware
Thu 06:12:17 AM 41.1640 28.7340 327° Northwest 274 315 5,900 2,123 Climbing FlightAware
Thu 06:12:57 AM 41.2100 28.6950 327° Northwest 282 325 7,200 1,360 Climbing FlightAware
Thu 06:13:32 AM 41.2480 28.6640 328° Northwest 274 315 7,600 943 Climbing FlightAware
Thu 06:14:07 AM 41.2870 28.6310 328° Northwest 284 327 8,300 1,636 Climbing FlightAware
Thu 06:14:27 AM 41.3080 28.6140 329° Northwest 284 327 9,100 2,100 Climbing FlightAware
Thu 06:15:07 AM 41.3570 28.5720 327° Northwest 309 356 10,400 1,520 Climbing FlightAware
Thu 06:15:42 AM 41.3940 28.5270 318° Northwest 341 392 11,000 1,400 Climbing FlightAware
Thu 06:16:37 AM 41.4450 28.4300 305° West 374 430 12,500 1,980 Climbing FlightAware
Thu 06:17:22 AM 41.4900 28.3420 304° West 378 435 14,300 2,400 Climbing FlightAware
Thu 06:18:02 AM 41.5330 28.2610 305° West 391 450 15,900 2,259 Climbing FlightAware
Thu 06:18:47 AM 41.5810 28.1680 305° West 400 460 17,500 1,976 Climbing FlightAware
Thu 06:19:27 AM 41.6230 28.0870 305° West 405 466 18,700 1,800 Climbing FlightAware
Thu 06:20:07 AM 41.6670 28.0010 304° West 414 476 19,900 1,835 Climbing FlightAware
Thu 06:20:52 AM 41.7180 27.9010 304° West 425 489 21,300 1,765 Climbing FlightAware
Thu 06:21:32 AM 41.7620 27.8160 305° West 432 497 22,400 1,516 Climbing FlightAware
Thu 06:22:27 AM 41.8240 27.6950 305° West 439 505 23,700 1,516 Climbing FlightAware
Thu 06:23:07 AM 41.8730 27.5980 304° West 444 511 24,800 1,482 Climbing FlightAware
Thu 06:23:52 AM 41.9210 27.5040 304° West 454 522 25,800 1,333 Climbing FlightAware
Thu 06:24:37 AM 41.9770 27.3920 304° West 459 528 26,800 1,412 Climbing FlightAware
Thu 06:25:17 AM 42.0270 27.2920 304° West 462 532 27,800 1,280 Climbing FlightAware
Thu 06:25:52 AM 42.0700 27.2140 307° West 467 537 28,400 1,059 Climbing FlightAware
Thu 06:26:42 AM 42.1400 27.1110 313° West 473 544 29,300 1,059 Climbing FlightAware
Thu 06:27:17 AM 42.1890 27.0430 314° West 474 545 29,900 494 Climbing FlightAware
Thu 06:28:07 AM 42.2700 26.9310 314° West 468 539 30,000 67 Climbing FlightAware
Thu 06:28:47 AM 42.3320 26.8440 314° West 466 536 30,000  Level FlightAware
Thu 06:29:27 AM 42.3970 26.7520 314° West 466 536 30,000  Level FlightAware
Thu 06:30:12 AM 42.4660 26.6550 314° West 467 537 30,000  Level FlightAware
Thu 06:30:52 AM 42.5250 26.5700 313° West 466 536 30,000  Level FlightAware
Thu 06:31:37 AM 42.5910 26.4770 314° West 466 536 30,000  Level FlightAware
Thu 06:32:12 AM 42.6440 26.4020 314° West 466 536 30,000  Level FlightAware
Thu 06:33:02 AM 42.7180 26.2950 313° West 466 536 30,000  Level FlightAware
Thu 06:33:42 AM 42.7700 26.2200 313° West 465 535 30,000  Level FlightAware
Thu 06:34:37 AM 42.8570 26.0950 314° West 466 536 30,000  Level FlightAware
Thu 06:35:17 AM 42.9160 26.0090 313° West 464 534 30,000  Level FlightAware
Thu 06:35:57 AM 42.9760 25.9220 313° West 463 533 30,000  Level FlightAware
Thu 06:36:42 AM 43.0370 25.8330 313° West 464 534 30,000  Level FlightAware
Thu 06:37:42 AM 43.1230 25.7080 313° West 467 537 30,000  Level FlightAware
Thu 06:38:17 AM 43.1780 25.6270 313° West 468 539 30,000  Level FlightAware
Thu 06:39:02 AM 43.2360 25.5420 313° West 469 540 30,000  Level FlightAware
Thu 06:39:37 AM 43.2930 25.4580 313° West 472 543 30,000  Level FlightAware
Thu 06:40:27 AM 43.3660 25.3510 313° West 476 548 30,000  Level FlightAware
Thu 06:41:22 AM 43.4470 25.2290 312° West 478 550 30,000  Level FlightAware
Thu 06:42:07 AM 43.5150 25.1270 313° West 477 549 30,000  Level FlightAware
Thu 06:42:47 AM 43.5750 25.0390 313° West 475 547 30,000  Level FlightAware
Thu 06:43:32 AM 43.6460 24.9320 313° West 475 547 30,000  Level FlightAware
Thu 06:44:12 AM 43.7060 24.8530 316° Northwest 471 542 30,000  Level FlightAware
Thu 06:44:52 AM 43.7790 24.7950 330° Northwest 467 537 30,000  Level FlightAware
Thu 06:45:37 AM 43.8730 24.7300 334° Northwest 467 537 30,000  Level FlightAware
Thu 06:46:12 AM 43.9420 24.6820 333° Northwest 467 537 30,000  Level FlightAware
Thu 06:47:02 AM 44.0400 24.6140 333° Northwest 466 536 30,000  Level FlightAware
Thu 06:47:32 AM 44.0920 24.5780 334° Northwest 466 536 30,000  Level FlightAware
Thu 06:48:22 AM 44.1810 24.5010 328° Northwest 465 535 30,000  Level FlightAware
Thu 06:49:07 AM 44.2590 24.4140 321° Northwest 466 536 30,000  Level FlightAware
Thu 06:49:47 AM 44.3310 24.3310 321° Northwest 467 537 30,000  Level FlightAware
Thu 06:50:32 AM 44.4060 24.2470 321° Northwest 467 537 30,000  Level FlightAware
Thu 06:51:12 AM 44.4700 24.1750 321° Northwest 467 537 30,000  Level FlightAware
Thu 06:51:52 AM 44.5350 24.1000 321° Northwest 466 536 30,000  Level FlightAware
Thu 06:52:37 AM 44.6060 24.0180 321° Northwest 466 536 30,000  Level FlightAware
Thu 06:53:07 AM 44.6600 23.9560 321° Northwest 467 537 30,000  Level FlightAware
Thu 06:53:57 AM 44.7390 23.8650 321° Northwest 467 537 30,000  Level FlightAware
Thu 06:54:37 AM 44.8090 23.7840 321° Northwest 466 536 30,000  Level FlightAware
Thu 06:55:22 AM 44.8850 23.6950 320° Northwest 468 539 30,000  Level FlightAware
Thu 06:56:07 AM 44.9560 23.6120 320° Northwest 468 539 30,000  Level FlightAware
Thu 06:56:47 AM 45.0270 23.5280 320° Northwest 466 536 30,000  Level FlightAware
Thu 06:57:42 AM 45.1140 23.4270 321° Northwest 464 534 30,000  Level FlightAware
Thu 06:58:17 AM 45.1740 23.3550 320° Northwest 464 534 30,000  Level FlightAware
Thu 06:59:07 AM 45.2510 23.2640 320° Northwest 466 536 30,000  Level FlightAware
Thu 06:59:47 AM 45.3210 23.1810 320° Northwest 466 536 30,000  Level FlightAware
Thu 07:00:27 AM 45.3870 23.1030 320° Northwest 466 536 30,000  Level FlightAware
Thu 07:01:12 AM 45.4530 23.0240 320° Northwest 466 536 30,000  Level FlightAware
Thu 07:01:52 AM 45.5090 22.9570 320° Northwest 466 536 30,000  Level FlightAware
Thu 07:02:32 AM 45.5650 22.8890 320° Northwest 466 536 30,000  Level FlightAware
Thu 07:03:17 AM 45.6620 22.7710 320° Northwest 462 532 30,000  Level FlightAware
Thu 07:04:12 AM 45.7520 22.6610 320° Northwest 462 532 30,000  Level FlightAware
Thu 07:04:47 AM 45.8070 22.5950 320° Northwest 460 529 30,000  Level FlightAware
Thu 07:05:32 AM 45.8730 22.5120 319° Northwest 460 529 30,000  Level FlightAware
Thu 07:07:02 AM 46.0300 22.3210 320° Northwest 460 529 30,000  Level FlightAware
Thu 07:07:42 AM 46.0980 22.2370 319° Northwest 457 526 30,000  Level FlightAware
Thu 07:08:27 AM 46.1690 22.1490 319° Northwest 457 526 30,000  Level FlightAware
Thu 07:09:07 AM 46.2330 22.0690 319° Northwest 455 524 30,000  Level FlightAware
Thu 07:09:47 AM 46.2940 21.9930 319° Northwest 447 514 30,000  Level FlightAware
Thu 07:10:32 AM 46.3660 21.9030 319° Northwest 453 521 30,000  Level FlightAware
Thu 07:11:12 AM 46.4310 21.8220 319° Northwest 449 517 30,000  Level FlightAware
Thu 07:11:57 AM 46.4990 21.7350 319° Northwest 449 517 30,000  Level FlightAware
Thu 07:12:47 AM 46.5800 21.6340 319° Northwest 455 524 30,000  Level FlightAware
Thu 07:13:32 AM 46.6480 21.5470 319° Northwest 454 522 30,000  Level FlightAware
Thu 07:14:17 AM 46.7190 21.4500 317° Northwest 454 522 30,000  Level FlightAware
Thu 07:14:57 AM 46.7800 21.3620 315° West 454 522 30,000  Level FlightAware
Thu 07:15:42 AM 46.8430 21.2680 314° West 453 521 30,000  Level FlightAware
Thu 07:16:37 AM 46.9270 21.1450 315° West 446 513 30,000  Level FlightAware
Thu 07:17:17 AM 46.9860 21.0570 315° West 447 514 30,000  Level FlightAware
Thu 07:18:02 AM 47.0520 20.9600 315° West 454 522 30,000  Level FlightAware
Thu 07:18:37 AM 47.1030 20.8830 314° West 447 514 30,000  Level FlightAware
Thu 07:19:22 AM 47.1690 20.7840 314° West 447 514 30,000  Level FlightAware
Thu 07:20:07 AM 47.2350 20.6850 314° West 446 513 30,000  Level FlightAware
Thu 07:20:47 AM 47.2960 20.5950 315° West 448 516 30,000  Level FlightAware
Thu 07:21:32 AM 47.3600 20.4980 314° West 448 516 30,000  Level FlightAware
Thu 07:22:12 AM 47.4200 20.4060 314° West 448 516 30,000  Level FlightAware
Thu 07:22:52 AM 47.4770 20.3190 314° West 448 516 30,000  Level FlightAware
Thu 07:23:37 AM 47.5420 20.2200 314° West 447 514 30,000  Level FlightAware
Thu 07:24:17 AM 47.6000 20.1310 314° West 448 516 30,000  Level FlightAware
Thu 07:25:02 AM 47.6670 20.0290 314° West 447 514 30,000  Level FlightAware
Thu 07:25:42 AM 47.7250 19.9390 314° West 444 511 30,000  Level FlightAware
Thu 07:26:27 AM 47.7890 19.8390 314° West 448 516 30,000  Level FlightAware
Thu 07:27:07 AM 47.8460 19.7520 314° West 449 517 30,000  Level FlightAware
Thu 07:27:47 AM 47.9040 19.6610 314° West 449 517 30,000  Level FlightAware
Thu 07:28:32 AM 47.9650 19.5650 314° West 449 517 30,000  Level FlightAware
Thu 07:29:12 AM 48.0260 19.4700 314° West 449 517 30,000  Level FlightAware
Thu 07:29:52 AM 48.0820 19.3860 315° West 450 518 30,000  Level FlightAware
Thu 07:30:37 AM 48.1630 19.3090 328° Northwest 447 514 30,000  Level FlightAware
Thu 07:31:17 AM 48.2400 19.2570 336° Northwest 455 524 30,000  Level FlightAware
Thu 07:32:02 AM 48.3260 19.2010 337° Northwest 453 521 30,000  Level FlightAware
Thu 07:32:42 AM 48.4040 19.1490 336° Northwest 454 522 30,000  Level FlightAware
Thu 07:33:22 AM 48.4800 19.0990 336° Northwest 446 513 30,000  Level FlightAware
Thu 07:34:07 AM 48.5660 19.0380 335° Northwest 447 514 30,000  Level FlightAware
Thu 07:34:47 AM 48.6390 18.9870 335° Northwest 457 526 30,000  Level FlightAware
Thu 07:35:32 AM 48.7290 18.9230 335° Northwest 449 517 30,000  Level FlightAware
Thu 07:36:12 AM 48.8070 18.8680 335° Northwest 450 518 30,000  Level FlightAware
Thu 07:36:52 AM 48.8820 18.8150 335° Northwest 447 514 30,000  Level FlightAware
Thu 07:37:37 AM 48.9680 18.7540 335° Northwest 448 516 30,000  Level FlightAware
Thu 07:38:17 AM 49.0440 18.7000 335° Northwest 449 517 30,000  Level FlightAware
Thu 07:39:02 AM 49.1310 18.6370 335° Northwest 449 517 30,000  Level FlightAware
Thu 07:39:42 AM 49.2050 18.5840 335° Northwest 448 516 30,000  Level FlightAware
Thu 07:40:22 AM 49.2810 18.5290 335° Northwest 445 512 30,000  Level FlightAware
Thu 07:41:07 AM 49.3680 18.4660 335° Northwest 444 511 30,000  Level FlightAware
Thu 07:41:47 AM 49.4430 18.4120 335° Northwest 444 511 30,000  Level FlightAware
Thu 07:42:32 AM 49.5290 18.3490 335° Northwest 451 519 30,000  Level FlightAware
Thu 07:43:12 AM 49.6030 18.2950 335° Northwest 452 520 30,000  Level FlightAware
Thu 07:43:52 AM 49.6790 18.2390 335° Northwest 450 518 30,000  Level FlightAware
Thu 07:44:37 AM 49.7660 18.1750 335° Northwest 449 517 30,000  Level FlightAware
Thu 07:45:17 AM 49.8370 18.1220 334° Northwest 445 512 30,000  Level FlightAware
Thu 07:45:57 AM 49.9110 18.0680 335° Northwest 443 510 30,000  Level FlightAware
Thu 07:46:42 AM 49.9980 18.0140 338° Northwest 444 511 30,000  Level FlightAware
Thu 07:47:22 AM 50.0760 17.9690 340° North 443 510 30,000  Level FlightAware
Thu 07:48:07 AM 50.1600 17.9200 340° North 440 506 30,000  Level FlightAware
Thu 07:48:47 AM 50.2360 17.8770 340° North 440 506 30,000  Level FlightAware
Thu 07:49:27 AM 50.3130 17.8320 340° North 440 506 30,000  Level FlightAware
Thu 07:50:12 AM 50.3990 17.7820 340° North 439 505 30,000  Level FlightAware
Thu 07:50:52 AM 50.4760 17.7380 340° North 439 505 30,000  Level FlightAware
Thu 07:51:37 AM 50.5590 17.6890 339° North 437 503 30,000  Level FlightAware
Thu 07:52:17 AM 50.6330 17.6460 340° North 436 502 30,000  Level FlightAware
Thu 07:53:02 AM 50.7170 17.5970 340° North 436 502 30,000  Level FlightAware
Thu 07:53:37 AM 50.7800 17.5600 340° North 435 501 30,000  Level FlightAware
Thu 07:54:22 AM 50.8680 17.5080 340° North 435 501 30,000  Level FlightAware
Thu 07:55:02 AM 50.9450 17.4620 339° North 435 501 30,000  Level FlightAware
Thu 07:55:52 AM 51.0390 17.4060 339° North 439 505 30,000  Level FlightAware
Thu 07:56:32 AM 51.1160 17.3600 339° North 440 506 30,000  Level FlightAware
Thu 07:57:12 AM 51.1930 17.3140 339° North 440 506 30,000  Level FlightAware
Thu 07:57:57 AM 51.2820 17.2610 340° North 439 505 30,000  Level FlightAware
Thu 07:58:37 AM 51.3580 17.2140 339° North 439 505 30,000  Level FlightAware
Thu 07:59:22 AM 51.4420 17.1640 340° North 439 505 30,000  Level FlightAware
Thu 08:00:02 AM 51.5180 17.1180 339° North 438 504 30,000  Level FlightAware
Thu 08:00:42 AM 51.5930 17.0720 339° North 437 503 30,000  Level FlightAware
Thu 08:01:27 AM 51.6800 17.0180 339° North 436 502 30,000  Level FlightAware
Thu 08:02:07 AM 51.7470 16.9770 339° North 436 502 30,000  Level FlightAware
Thu 08:02:52 AM 51.8420 16.9190 339° North 437 503 30,000  Level FlightAware
Thu 08:03:32 AM 51.9170 16.8720 339° North 438 504 30,000  Level FlightAware
Thu 08:04:12 AM 51.9920 16.8250 339° North 438 504 30,000  Level FlightAware
Thu 08:04:57 AM 52.0760 16.7730 339° North 440 506 30,000  Level FlightAware
Thu 08:05:37 AM 52.1500 16.7260 339° North 440 506 30,000  Level FlightAware
Thu 08:06:17 AM 52.2210 16.6820 339° North 440 506 30,000  Level FlightAware
Thu 08:07:02 AM 52.3150 16.6220 339° North 438 504 30,000  Level FlightAware
Thu 08:07:42 AM 52.3900 16.5740 339° North 439 505 30,000  Level FlightAware
Thu 08:08:22 AM 52.4550 16.5330 339° North 438 504 30,000  Level FlightAware
Thu 08:09:07 AM 52.5490 16.4730 339° North 438 504 30,000  Level FlightAware
Thu 08:09:47 AM 52.6220 16.4260 339° North 439 505 30,000  Level FlightAware
Thu 08:10:27 AM 52.6970 16.3780 339° North 440 506 30,000  Level FlightAware
Thu 08:11:12 AM 52.7840 16.3220 339° North 440 506 30,000  Level FlightAware
Thu 08:11:52 AM 52.8580 16.2740 339° North 439 505 30,000  Level FlightAware
Thu 08:12:37 AM 52.9460 16.2160 338° Northwest 437 503 30,000  Level FlightAware
Thu 08:13:17 AM 53.0210 16.1670 339° North 437 503 30,000  Level FlightAware
Thu 08:13:57 AM 53.0970 16.1180 339° North 435 501 30,000  Level FlightAware
Thu 08:14:42 AM 53.1790 16.0630 338° Northwest 434 499 30,000  Level FlightAware
Thu 08:15:22 AM 53.2530 16.0140 338° Northwest 433 498 30,000  Level FlightAware
Thu 08:16:07 AM 53.3390 15.9570 338° Northwest 432 497 30,000  Level FlightAware
Thu 08:16:47 AM 53.4130 15.9080 338° Northwest 431 496 30,000  Level FlightAware
Thu 08:17:27 AM 53.4870 15.8580 338° Northwest 431 496 30,000  Level FlightAware
Thu 08:18:12 AM 53.5680 15.8030 338° Northwest 432 497 30,000  Level FlightAware
Thu 08:18:52 AM 53.6410 15.7540 338° Northwest 430 495 30,000  Level FlightAware
Thu 08:19:32 AM 53.7150 15.7040 338° Northwest 430 495 30,000  Level FlightAware
Thu 08:20:17 AM 53.7980 15.6470 338° Northwest 431 496 30,000  Level FlightAware
Thu 08:20:57 AM 53.8730 15.5960 338° Northwest 430 495 30,000  Level FlightAware
Thu 08:21:42 AM 53.9550 15.5400 338° Northwest 429 494 30,000  Level FlightAware
Thu 08:22:22 AM 54.0290 15.4890 338° Northwest 428 493 30,000  Level FlightAware
Thu 08:23:07 AM 54.1120 15.4310 338° Northwest 428 493 30,000  Level FlightAware
Thu 08:23:47 AM 54.1860 15.3800 338° Northwest 429 494 30,000  Level FlightAware
Thu 08:24:27 AM 54.2570 15.3310 338° Northwest 427 491 30,000  Level FlightAware
Thu 08:25:12 AM 54.3350 15.2620 333° Northwest 418 481 30,000  Level FlightAware
Thu 08:25:52 AM 54.3950 15.1810 322° Northwest 415 478 30,000  Level FlightAware
Thu 08:26:37 AM 54.4600 15.0820 318° Northwest 415 478 30,000  Level FlightAware
Thu 08:27:17 AM 54.5160 14.9990 319° Northwest 414 476 30,000  Level FlightAware
Thu 08:28:02 AM 54.5780 14.9060 319° Northwest 408 470 30,000  Level FlightAware
Thu 08:28:42 AM 54.6370 14.8180 319° Northwest 409 471 30,000  Level FlightAware
Thu 08:29:22 AM 54.6940 14.7330 319° Northwest 409 471 30,000  Level FlightAware
Thu 08:30:07 AM 54.7610 14.6300 318° Northwest 414 476 30,000  Level FlightAware
Thu 08:30:52 AM 54.8260 14.5310 319° Northwest 415 478 30,000  Level FlightAware
Thu 08:31:32 AM 54.8840 14.4420 319° Northwest 413 475 30,000  Level FlightAware
Thu 08:32:12 AM 54.9410 14.3550 319° Northwest 413 475 30,000  Level FlightAware
Thu 08:32:57 AM 55.0080 14.2500 318° Northwest 413 475 30,000  Level FlightAware
Thu 08:33:37 AM 55.0620 14.1670 319° Northwest 412 474 30,000  Level FlightAware
Thu 08:34:17 AM 55.1210 14.0740 318° Northwest 413 475 30,000  Level FlightAware
Thu 08:35:02 AM 55.1830 13.9770 318° Northwest 414 476 30,000  Level FlightAware
Thu 08:35:42 AM 55.2380 13.8910 318° Northwest 413 475 30,000  Level FlightAware
Thu 08:36:22 AM 55.2970 13.7970 318° Northwest 413 475 30,000  Level FlightAware
Thu 08:37:07 AM 55.3630 13.6940 318° Northwest 413 475 30,000  Level FlightAware
Thu 08:37:47 AM 55.4190 13.6040 318° Northwest 413 475 30,000  Level FlightAware
Thu 08:38:32 AM 55.4800 13.5060 318° Northwest 413 475 30,000  Level FlightAware
Thu 08:39:12 AM 55.5370 13.4190 319° Northwest 418 481 30,000  Level FlightAware
Thu 08:39:57 AM 55.6070 13.3320 325° Northwest 419 482 30,000  Level FlightAware
Thu 08:40:37 AM 55.6700 13.2520 324° Northwest 418 481 30,000  Level FlightAware
Thu 08:41:17 AM 55.7330 13.1690 323° Northwest 418 481 30,000  Level FlightAware
Thu 08:41:57 AM 55.7940 13.0870 323° Northwest 417 480 30,000  Level FlightAware
Thu 08:42:37 AM 55.8560 13.0040 323° Northwest 417 480 30,000  Level FlightAware
Thu 08:43:27 AM 55.9310 12.9040 323° Northwest 418 481 30,000  Level FlightAware
Thu 08:44:07 AM 55.9940 12.8190 323° Northwest 417 480 30,000  Level FlightAware
Thu 08:44:47 AM 56.0520 12.7420 323° Northwest 417 480 30,000  Level FlightAware
Thu 08:45:32 AM 56.1270 12.6410 323° Northwest 417 480 30,000  Level FlightAware
Thu 08:46:12 AM 56.1890 12.5570 323° Northwest 417 480 30,000  Level FlightAware
Thu 08:46:52 AM 56.2470 12.4780 323° Northwest 417 480 30,000  Level FlightAware
Thu 08:47:37 AM 56.3200 12.3780 323° Northwest 417 480 30,000  Level FlightAware
Thu 08:48:22 AM 56.3880 12.2860 323° Northwest 417 480 30,000  Level FlightAware
Thu 08:49:02 AM 56.4490 12.2020 323° Northwest 417 480 30,000  Level FlightAware
Thu 08:49:42 AM 56.5080 12.1220 323° Northwest 416 479 30,000  Level FlightAware
Thu 08:50:27 AM 56.5770 12.0260 323° Northwest 417 480 30,000  Level FlightAware
Thu 08:51:07 AM 56.6400 11.9400 323° Northwest 418 481 30,000  Level FlightAware
Thu 08:51:47 AM 56.6980 11.8590 323° Northwest 418 481 30,000 706 Level FlightAware
Thu 08:52:32 AM 56.7740 11.7530 323° Northwest 417 480 31,000 1,341 Climbing FlightAware
Thu 08:53:12 AM 56.8310 11.6730 322° Northwest 414 476 31,900 706 Climbing FlightAware
Thu 08:53:57 AM 56.9020 11.5740 323° Northwest 410 472 32,000 71 Climbing FlightAware
Thu 08:54:37 AM 56.9620 11.4890 322° Northwest 410 472 32,000  Level FlightAware
Thu 08:55:22 AM 57.0280 11.3950 322° Northwest 412 474 32,000  Level FlightAware
Thu 08:56:02 AM 57.0890 11.3090 323° Northwest 411 473 32,000  Level FlightAware
Thu 08:56:42 AM 57.1490 11.2230 322° Northwest 411 473 32,000  Level FlightAware
Thu 08:57:27 AM 57.2170 11.1240 322° Northwest 411 473 32,000  Level FlightAware
Thu 08:58:07 AM 57.2770 11.0370 322° Northwest 411 473 32,000  Level FlightAware
Thu 08:58:52 AM 57.3440 10.9410 322° Northwest 412 474 32,000  Level FlightAware
Thu 08:59:32 AM 57.4040 10.8530 322° Northwest 412 474 32,000  Level FlightAware
Thu 09:00:12 AM 57.4630 10.7660 322° Northwest 412 474 32,000  Level FlightAware
Thu 09:00:57 AM 57.5320 10.6660 322° Northwest 412 474 32,000  Level FlightAware
Thu 09:01:37 AM 57.5900 10.5790 321° Northwest 411 473 32,000  Level FlightAware
Thu 09:02:22 AM 57.6560 10.4810 322° Northwest 410 472 32,000  Level FlightAware
Thu 09:03:02 AM 57.7140 10.3940 321° Northwest 410 472 32,000  Level FlightAware
Thu 09:03:42 AM 57.7750 10.3030 322° Northwest 411 473 32,000  Level FlightAware
Thu 09:04:27 AM 57.8400 10.2060 322° Northwest 411 473 32,000  Level FlightAware
Thu 09:05:07 AM 57.9010 10.1140 321° Northwest 412 474 32,000  Level FlightAware
Thu 09:05:47 AM 57.9600 10.0240 321° Northwest 411 473 32,000  Level FlightAware
Thu 09:06:32 AM 58.0250 9.9250 321° Northwest 410 472 32,000  Level FlightAware
Thu 09:07:12 AM 58.0830 9.8350 321° Northwest 410 472 32,000  Level FlightAware
Thu 09:07:57 AM 58.1510 9.7300 321° Northwest 411 473 32,000  Level FlightAware
Thu 09:08:37 AM 58.2110 9.6390 321° Northwest 413 475 32,000  Level FlightAware
Thu 09:09:17 AM 58.2690 9.5480 320° Northwest 413 475 32,000  Level FlightAware
Thu 09:10:02 AM 58.3340 9.4460 321° Northwest 412 474 32,000  Level FlightAware
Thu 09:10:42 AM 58.3930 9.3540 321° Northwest 412 474 32,000  Level FlightAware
Thu 09:11:27 AM 58.4600 9.2480 320° Northwest 411 473 32,000  Level FlightAware
Thu 09:11:57 AM 58.5000 9.1860 321° Northwest 411 473 32,000  Level FlightAware
Thu 09:12:52 AM 58.5820 9.0550 320° Northwest 411 473 32,000  Level FlightAware
Thu 09:13:32 AM 58.6410 8.9610 320° Northwest 411 473 32,000  Level FlightAware
Thu 09:14:12 AM 58.6970 8.8700 320° Northwest 412 474 32,000  Level FlightAware
Thu 09:14:57 AM 58.7640 8.7620 320° Northwest 411 473 32,000  Level FlightAware
Thu 09:15:37 AM 58.8200 8.6720 320° Northwest 412 474 32,000  Level FlightAware
Thu 09:16:22 AM 58.8870 8.5630 320° Northwest 413 475 32,000  Level FlightAware
Thu 09:17:02 AM 58.9230 8.5030 319° Northwest 415 478 32,000  Level FlightAware
Thu 09:17:42 AM 59.0040 8.3710 320° Northwest 415 478 32,000  Level FlightAware
Thu 09:18:27 AM 59.0690 8.2630 320° Northwest 416 479 32,000  Level FlightAware
Thu 09:19:07 AM 59.1270 8.1660 319° Northwest 414 476 32,000  Level FlightAware
Thu 09:19:52 AM 59.1920 8.0580 320° Northwest 412 474 32,000  Level FlightAware
Thu 09:20:32 AM 59.2500 7.9610 319° Northwest 410 472 32,000  Level FlightAware
Thu 09:21:12 AM 59.3070 7.8660 320° Northwest 409 471 32,000  Level FlightAware
Thu 09:21:52 AM 59.3640 7.7680 319° Northwest 408 470 32,000  Level FlightAware
Thu 09:22:37 AM 59.4280 7.6600 319° Northwest 409 471 32,000  Level FlightAware
Thu 09:23:17 AM 59.4840 7.5630 319° Northwest 410 472 32,000  Level FlightAware
Thu 09:24:02 AM 59.5550 7.4630 324° Northwest 427 491 32,000  Level FlightAware
Thu 09:24:42 AM 59.6230 7.3850 330° Northwest 429 494 32,000  Level FlightAware
Thu 09:25:22 AM 59.6910 7.3090 331° Northwest 429 494 32,000  Level FlightAware
Thu 09:26:07 AM 59.7700 7.2200 330° Northwest 429 494 32,000  Level FlightAware
Thu 09:26:47 AM 59.8380 7.1430 330° Northwest 428 493 32,000  Level FlightAware
Thu 09:27:27 AM 59.9060 7.0640 330° Northwest 427 491 32,000  Level FlightAware
Thu 09:28:12 AM 59.9820 6.9760 330° Northwest 425 489 32,000  Level FlightAware
Thu 09:28:52 AM 60.0500 6.8980 330° Northwest 426 490 32,000  Level FlightAware
Thu 09:29:37 AM 60.1300 6.8150 333° Northwest 435 501 32,000  Level FlightAware
Thu 09:30:17 AM 60.2030 6.7470 335° Northwest 437 503 32,000  Level FlightAware
Thu 09:30:57 AM 60.2770 6.6810 336° Northwest 436 502 32,000  Level FlightAware
Thu 09:31:42 AM 60.3590 6.6050 335° Northwest 434 499 32,000  Level FlightAware
Thu 09:32:22 AM 60.4320 6.5370 335° Northwest 435 501 32,000  Level FlightAware
Thu 09:33:07 AM 60.5130 6.4600 335° Northwest 437 503 32,000  Level FlightAware
Thu 09:33:47 AM 60.5860 6.3910 335° Northwest 439 505 32,000  Level FlightAware
Thu 09:36:00 AM 60.7840 5.9873 315° West  Level Estimated
Thu 09:37:00 AM 60.8729 5.8036 315° West  Level Estimated
Thu 09:37:37 AM 61.0130 5.9790 315° West 449 517 32,000  Level FlightAware
Thu 09:38:52 AM 61.1530 5.8410 335° Northwest 445 512 32,000  Level FlightAware
Thu 09:40:32 AM 61.3360 5.6600 335° Northwest 448 516 32,000  Level FlightAware
Thu 09:41:17 AM 61.4240 5.5710 334° Northwest 450 518 32,000  Level FlightAware
Thu 09:41:57 AM 61.4980 5.4960 334° Northwest 452 520 32,000  Level FlightAware
Thu 09:42:42 AM 61.5860 5.4070 334° Northwest 452 520 32,000  Level FlightAware
Thu 09:43:17 AM 61.6550 5.3370 334° Northwest 452 520 32,000  Level FlightAware
Thu 09:44:02 AM 61.7390 5.2490 334° Northwest 454 522 32,000  Level FlightAware
Thu 09:44:32 AM 61.7970 5.1890 334° Northwest 462 532 32,000  Level FlightAware
Thu 09:45:17 AM 61.8830 5.0990 334° Northwest 464 534 32,000  Level FlightAware
Thu 09:45:57 AM 61.9610 5.0170 334° Northwest 465 535 32,000  Level FlightAware
Thu 09:46:37 AM 62.0370 4.9380 334° Northwest 466 536 32,000  Level FlightAware
Thu 09:47:22 AM 62.1250 4.8440 333° Northwest 470 541 32,000  Level FlightAware
Thu 09:48:02 AM 62.2020 4.7610 333° Northwest 466 536 32,000  Level FlightAware
Thu 09:48:42 AM 62.2820 4.6750 333° Northwest 468 539 32,000  Level FlightAware
Thu 09:49:27 AM 62.3710 4.5790 333° Northwest 467 537 32,000  Level FlightAware
Thu 09:50:12 AM 62.4590 4.4830 333° Northwest 466 536 32,000  Level FlightAware
Thu 09:50:52 AM 62.5370 4.3970 333° Northwest 467 537 32,000  Level FlightAware
Thu 09:52:27 AM 62.7080 4.2060 333° Northwest 467 537 32,000  Level FlightAware
Thu 09:53:27 AM 62.8310 4.0700 333° Northwest 475 547 32,000  Level FlightAware
Thu 09:54:02 AM 62.8900 4.0010 332° Northwest 475 547 32,000  Level FlightAware
Thu 09:54:52 AM 63.0000 3.8790 333° Northwest 474 545 32,000  Level FlightAware
Thu 09:55:42 AM 63.0860 3.7790 332° Northwest 474 545 32,000  Level FlightAware
Thu 09:56:42 AM 63.2060 3.6410 333° Northwest 475 547 32,000  Level FlightAware
Thu 09:57:22 AM 63.2720 3.5630 332° Northwest 475 547 32,000  Level FlightAware
Thu 09:58:02 AM 63.3380 3.4850 332° Northwest 475 547 32,000  Level FlightAware
Thu 09:58:42 AM 63.4040 3.4060 332° Northwest 475 547 32,000  Level FlightAware
Thu 09:59:32 AM 63.4870 3.3080 332° Northwest 475 547 32,000  Level FlightAware
Thu 10:00:12 AM 63.5530 3.2300 332° Northwest 475 547 32,000  Level FlightAware
Thu 10:00:52 AM 63.6190 3.1510 332° Northwest 475 547 32,000  Level FlightAware
Thu 10:01:32 AM 63.6850 3.0720 332° Northwest 475 547 32,000  Level FlightAware
Thu 10:02:12 AM 63.7510 2.9920 332° Northwest 475 547 32,000  Level FlightAware
Thu 10:03:02 AM 63.8330 2.8930 332° Northwest 475 547 32,000  Level FlightAware
Thu 10:03:42 AM 63.8990 2.8130 332° Northwest 475 547 32,000  Level FlightAware
Thu 10:04:22 AM 63.9650 2.7340 332° Northwest 475 547 32,000  Level FlightAware
Thu 10:05:02 AM 64.0310 2.6540 332° Northwest 475 547 32,000  Level FlightAware
Thu 10:05:42 AM 64.0970 2.5730 332° Northwest 475 547 32,000  Level FlightAware
Thu 10:07:37 AM 64.4690 2.1020 331° Northwest 477 549 32,000  Level FlightAware
Thu 10:08:22 AM 64.5500 1.9980 331° Northwest 477 549 32,000  Level FlightAware
Thu 10:09:02 AM 64.6150 1.9140 331° Northwest 477 549 32,000  Level FlightAware
Thu 10:09:42 AM 64.6810 1.8290 331° Northwest 477 549 32,000  Level FlightAware
Thu 10:10:22 AM 64.7470 1.7430 331° Northwest 477 549 32,000  Level FlightAware
Thu 10:11:12 AM 64.8290 1.6370 331° Northwest 477 549 32,000  Level FlightAware
Thu 10:11:52 AM 64.8940 1.5510 331° Northwest 477 549 32,000  Level FlightAware
Thu 10:12:32 AM 64.9600 1.4650 331° Northwest 477 549 32,000  Level FlightAware
Thu 10:13:12 AM 65.0260 1.3790 331° Northwest 477 549 32,000  Level FlightAware
Thu 10:13:52 AM 65.0910 1.2930 331° Northwest 477 549 32,000  Level FlightAware
Thu 10:14:32 AM 65.1570 1.2060 331° Northwest 477 549 32,000  Level FlightAware
Thu 10:15:22 AM 65.2390 1.0980 331° Northwest 477 549 32,000  Level FlightAware
Thu 10:16:02 AM 65.3040 1.0110 331° Northwest 477 549 32,000  Level FlightAware
Thu 10:16:42 AM 65.3700 0.9240 331° Northwest 477 549 32,000  Level FlightAware
Thu 10:17:22 AM 65.4360 0.8360 331° Northwest 477 549 32,000 12 Level FlightAware
Thu 10:20:00 AM 65.6470 0.2158 310° West  Level Estimated
Thu 10:21:00 AM 65.7264 -0.0224 309° West  Level Estimated
Thu 10:22:00 AM 65.8055 -0.2620 309° West  Level Estimated
Thu 10:23:00 AM 65.8842 -0.5031 309° West  Level Estimated
Thu 10:24:00 AM 65.9625 -0.7456 308° West  Level Estimated
Thu 10:25:00 AM 66.0404 -0.9897 308° West  Level Estimated
Thu 10:26:00 AM 66.1180 -1.2352 308° West  Level Estimated
Thu 10:27:00 AM 66.1951 -1.4823 308° West  Level Estimated
Thu 10:28:00 AM 66.2719 -1.7309 308° West  Level Estimated
Thu 10:29:00 AM 66.3483 -1.9810 307° West  Level Estimated
Thu 10:30:00 AM 66.4242 -2.2326 307° West  Level Estimated
Thu 10:31:00 AM 66.4997 -2.4857 307° West  Level Estimated
Thu 10:32:00 AM 66.5749 -2.7404 307° West  Level Estimated
Thu 10:33:00 AM 66.6496 -2.9966 306° West  Level Estimated
Thu 10:34:00 AM 66.7239 -3.2543 306° West  Level Estimated
Thu 10:35:00 AM 66.7978 -3.5137 306° West  Level Estimated
Thu 10:36:00 AM 66.8712 -3.7745 306° West  Level Estimated
Thu 10:37:00 AM 66.9443 -4.0370 305° West  Level Estimated
Thu 10:38:00 AM 67.0168 -4.3010 305° West  Level Estimated
Thu 10:39:00 AM 67.0890 -4.5666 305° West  Level Estimated
Thu 10:40:00 AM 67.1607 -4.8338 305° West  Level Estimated
Thu 10:41:00 AM 67.2319 -5.1025 304° West  Level Estimated
Thu 10:42:00 AM 67.3027 -5.3729 304° West  Level Estimated
Thu 10:43:00 AM 67.3731 -5.6448 304° West  Level Estimated
Thu 10:44:00 AM 67.4429 -5.9184 304° West  Level Estimated
Thu 10:45:00 AM 67.5124 -6.1935 303° West  Level Estimated
Thu 10:46:00 AM 67.5813 -6.4703 303° West  Level Estimated
Thu 10:47:00 AM 67.6498 -6.7487 303° West  Level Estimated
Thu 10:48:00 AM 67.7178 -7.0287 303° West  Level Estimated
Thu 10:49:00 AM 67.7853 -7.3103 302° West  Level Estimated
Thu 10:50:00 AM 67.8523 -7.5935 302° West  Level Estimated
Thu 10:51:00 AM 67.9188 -7.8784 302° West  Level Estimated
Thu 10:52:00 AM 67.9848 -8.1649 302° West  Level Estimated
Thu 10:53:00 AM 68.0504 -8.4530 301° West  Level Estimated
Thu 10:54:00 AM 68.1154 -8.7428 301° West  Level Estimated
Thu 10:55:00 AM 68.1799 -9.0342 301° West  Level Estimated
Thu 10:56:00 AM 68.2439 -9.3272 301° West  Level Estimated
Thu 10:57:00 AM 68.3074 -9.6219 300° West  Level Estimated
Thu 10:58:00 AM 68.3704 -9.9182 300° West  Level Estimated
Thu 10:59:00 AM 68.4328 -10.2162 300° West  Level Estimated
Thu 11:00:00 AM 68.4947 -10.5158 300° West  Level Estimated
Thu 11:01:00 AM 68.5561 -10.8170 299° West  Level Estimated
Thu 11:02:00 AM 68.6169 -11.1199 299° West  Level Estimated
Thu 11:03:00 AM 68.6771 -11.4244 299° West  Level Estimated
Thu 11:04:00 AM 68.7369 -11.7305 298° West  Level Estimated
Thu 11:05:00 AM 68.7960 -12.0383 298° West  Level Estimated
Thu 11:06:00 AM 68.8546 -12.3477 298° West  Level Estimated
Thu 11:07:00 AM 68.9127 -12.6588 298° West  Level Estimated
Thu 11:08:00 AM 68.9702 -12.9715 297° West  Level Estimated
Thu 11:09:00 AM 69.0270 -13.2858 297° West  Level Estimated
Thu 11:10:00 AM 69.0834 -13.6017 297° West  Level Estimated
Thu 11:11:00 AM 69.1391 -13.9193 296° West  Level Estimated
Thu 11:12:00 AM 69.1943 -14.2385 296° West  Level Estimated
Thu 11:13:00 AM 69.2488 -14.5593 296° West  Level Estimated
Thu 11:14:00 AM 69.3027 -14.8817 295° West  Level Estimated
Thu 11:15:00 AM 69.3561 -15.2057 295° West  Level Estimated
Thu 11:16:00 AM 69.4088 -15.5312 295° West  Level Estimated
Thu 11:17:00 AM 69.4610 -15.8584 295° West  Level Estimated
Thu 11:18:00 AM 69.5125 -16.1872 294° West  Level Estimated
Thu 11:19:00 AM 69.5634 -16.5175 294° West  Level Estimated
Thu 11:20:00 AM 69.6136 -16.8494 294° West  Level Estimated
Thu 11:21:00 AM 69.6633 -17.1829 293° West  Level Estimated
Thu 11:22:00 AM 69.7123 -17.5180 293° West  Level Estimated
Thu 11:23:00 AM 69.7606 -17.8545 293° West  Level Estimated
Thu 11:24:00 AM 69.8084 -18.1926 292° West  Level Estimated
Thu 11:25:00 AM 69.8554 -18.5322 292° West  Level Estimated
Thu 11:26:00 AM 69.9018 -18.8734 292° West  Level Estimated
Thu 11:27:00 AM 69.9476 -19.2160 291° West  Level Estimated
Thu 11:28:00 AM 69.9927 -19.5602 291° West  Level Estimated
Thu 11:29:00 AM 70.0371 -19.9058 291° West  Level Estimated
Thu 11:30:00 AM 70.0808 -20.2529 290° West  Level Estimated
Thu 11:31:00 AM 70.1239 -20.6014 290° West  Level Estimated
Thu 11:32:00 AM 70.1663 -20.9514 290° West  Level Estimated
Thu 11:33:00 AM 70.2080 -21.3028 289° West  Level Estimated
Thu 11:34:00 AM 70.2491 -21.6556 289° West  Level Estimated
Thu 11:35:00 AM 70.2894 -22.0098 289° West  Level Estimated
Thu 11:36:00 AM 70.3290 -22.3654 288° West  Level Estimated
Thu 11:37:00 AM 70.3680 -22.7224 288° West  Level Estimated
Thu 11:38:00 AM 70.4062 -23.0807 288° West  Level Estimated
Thu 11:39:00 AM 70.4437 -23.4404 287° West  Level Estimated
Thu 11:40:00 AM 70.4805 -23.8014 287° West  Level Estimated
Thu 11:41:00 AM 70.5165 -24.1636 287° West  Level Estimated
Thu 11:42:00 AM 70.5519 -24.5272 286° West  Level Estimated
Thu 11:43:00 AM 70.5865 -24.8920 286° West  Level Estimated
Thu 11:44:00 AM 70.6204 -25.2580 286° West  Level Estimated
Thu 11:45:00 AM 70.6536 -25.6253 285° West  Level Estimated
Thu 11:46:00 AM 70.6860 -25.9937 285° West  Level Estimated
Thu 11:47:00 AM 70.7177 -26.3634 285° West  Level Estimated
Thu 11:48:00 AM 70.7486 -26.7342 284° West  Level Estimated
Thu 11:49:00 AM 70.7788 -27.1061 284° West  Level Estimated
Thu 11:50:00 AM 70.8083 -27.4791 284° West  Level Estimated
Thu 11:51:00 AM 70.8369 -27.8533 283° West  Level Estimated
Thu 11:52:00 AM 70.8649 -28.2285 283° West  Level Estimated
Thu 11:53:00 AM 70.8920 -28.6047 283° West  Level Estimated
Thu 11:54:00 AM 70.9184 -28.9820 282° West  Level Estimated
Thu 11:55:00 AM 70.9440 -29.3602 282° West  Level Estimated
Thu 11:56:00 AM 70.9689 -29.7394 282° West  Level Estimated
Thu 11:57:00 AM 70.9929 -30.1196 281° West  Level Estimated
Thu 11:58:00 AM 71.0162 -30.5006 281° West  Level Estimated
Thu 11:59:00 AM 71.0387 -30.8826 280° West  Level Estimated
Thu 12:00:00 PM 71.0605 -31.2654 280° West  Level Estimated
Thu 12:01:00 PM 71.0814 -31.6490 280° West  Level Estimated
Thu 12:02:00 PM 71.1015 -32.0335 279° West  Level Estimated
Thu 12:03:00 PM 71.1209 -32.4187 279° West  Level Estimated
Thu 12:04:00 PM 71.1395 -32.8046 279° West  Level Estimated
Thu 12:05:00 PM 71.1572 -33.1913 278° West  Level Estimated
Thu 12:06:00 PM 71.1742 -33.5787 278° West  Level Estimated
Thu 12:07:00 PM 71.1904 -33.9667 278° West  Level Estimated
Thu 12:08:00 PM 71.2057 -34.3554 277° West  Level Estimated
Thu 12:09:00 PM 71.2203 -34.7446 277° West  Level Estimated
Thu 12:10:00 PM 71.2340 -35.1344 276° West  Level Estimated
Thu 12:11:00 PM 71.2470 -35.5248 276° West  Level Estimated
Thu 12:12:00 PM 71.2591 -35.9156 276° West  Level Estimated
Thu 12:13:00 PM 71.2704 -36.3070 275° West  Level Estimated
Thu 12:14:00 PM 71.2810 -36.6987 275° West  Level Estimated
Thu 12:15:00 PM 71.2906 -37.0909 275° West  Level Estimated
Thu 12:16:00 PM 71.2995 -37.4835 274° West  Level Estimated
Thu 12:17:00 PM 71.3076 -37.8764 274° West  Level Estimated
Thu 12:18:00 PM 71.3148 -38.2696 273° West  Level Estimated
Thu 12:19:00 PM 71.3212 -38.6630 273° West  Level Estimated
Thu 12:20:00 PM 71.3268 -39.0568 273° West  Level Estimated
Thu 12:21:00 PM 71.3316 -39.4507 272° West  Level Estimated
Thu 12:22:00 PM 71.3356 -39.8448 272° West  Level Estimated
Thu 12:23:00 PM 71.3387 -40.2391 272° West  Level Estimated
Thu 12:24:00 PM 71.3410 -40.6334 271° West  Level Estimated
Thu 12:25:00 PM 71.3425 -41.0279 271° West  Level Estimated
Thu 12:26:00 PM 71.3431 -41.4224 270° West  Level Estimated
Thu 12:27:00 PM 71.3430 -41.8169 270° West  Level Estimated
Thu 12:28:00 PM 71.3420 -42.2114 270° West  Level Estimated
Thu 12:29:00 PM 71.3402 -42.6058 269° West  Level Estimated
Thu 12:30:00 PM 71.3376 -43.0001 269° West  Level Estimated
Thu 12:31:00 PM 71.3341 -43.3943 269° West  Level Estimated
Thu 12:32:00 PM 71.3298 -43.7884 268° West  Level Estimated
Thu 12:33:00 PM 71.3248 -44.1822 268° West  Level Estimated
Thu 12:34:00 PM 71.3188 -44.5759 267° West  Level Estimated
Thu 12:35:00 PM 71.3121 -44.9692 267° West  Level Estimated
Thu 12:36:00 PM 71.3046 -45.3623 267° West  Level Estimated
Thu 12:37:00 PM 71.2962 -45.7551 266° West  Level Estimated
Thu 12:38:00 PM 71.2870 -46.1475 266° West  Level Estimated
Thu 12:39:00 PM 71.2770 -46.5395 266° West  Level Estimated
Thu 12:40:00 PM 71.2662 -46.9311 265° West  Level Estimated
Thu 12:41:00 PM 71.2545 -47.3223 265° West  Level Estimated
Thu 12:42:00 PM 71.2421 -47.7129 265° West  Level Estimated
Thu 12:43:00 PM 71.2288 -48.1031 264° West  Level Estimated
Thu 12:44:00 PM 71.2148 -48.4927 264° West  Level Estimated
Thu 12:45:00 PM 71.1999 -48.8817 263° West  Level Estimated
Thu 12:46:00 PM 71.1842 -49.2701 263° West  Level Estimated
Thu 12:47:00 PM 71.1677 -49.6579 263° West  Level Estimated
Thu 12:48:00 PM 71.1505 -50.0450 262° West  Level Estimated
Thu 12:49:00 PM 71.1324 -50.4314 262° West  Level Estimated
Thu 12:50:00 PM 71.1135 -50.8171 262° West  Level Estimated
Thu 12:51:00 PM 71.0938 -51.2020 261° West  Level Estimated
Thu 12:52:00 PM 71.0734 -51.5862 261° West  Level Estimated
Thu 12:53:00 PM 71.0521 -51.9695 260° West  Level Estimated
Thu 12:54:00 PM 71.0301 -52.3520 260° West  Level Estimated
Thu 12:55:00 PM 71.0073 -52.7336 260° West  Level Estimated
Thu 12:56:00 PM 70.9837 -53.1143 259° West  Level Estimated
Thu 12:57:00 PM 70.9593 -53.4941 259° West  Level Estimated
Thu 12:58:00 PM 70.9342 -53.8729 259° West  Level Estimated
Thu 12:59:00 PM 70.9083 -54.2508 258° West  Level Estimated
Thu 01:00:00 PM 70.8816 -54.6276 258° West  Level Estimated
Thu 01:01:00 PM 70.8541 -55.0035 258° West  Level Estimated
Thu 01:02:00 PM 70.8259 -55.3783 257° West  Level Estimated
Thu 01:03:00 PM 70.7970 -55.7520 257° West  Level Estimated
Thu 01:04:00 PM 70.7672 -56.1246 257° West  Level Estimated
Thu 01:05:00 PM 70.7367 -56.4961 256° West  Level Estimated
Thu 01:06:00 PM 70.7055 -56.8664 256° West  Level Estimated
Thu 01:07:00 PM 70.6736 -57.2356 256° West  Level Estimated
Thu 01:08:00 PM 70.6408 -57.6036 255° West  Level Estimated
Thu 01:09:00 PM 70.6074 -57.9704 255° West  Level Estimated
Thu 01:10:00 PM 70.5732 -58.3360 254° West  Level Estimated
Thu 01:11:00 PM 70.5383 -58.7003 254° West  Level Estimated
Thu 01:12:00 PM 70.5027 -59.0633 254° West  Level Estimated
Thu 01:13:00 PM 70.4663 -59.4251 253° West  Level Estimated
Thu 01:14:00 PM 70.4292 -59.7855 253° West  Level Estimated
Thu 01:15:00 PM 70.3914 -60.1447 253° West  Level Estimated
Thu 01:16:00 PM 70.3530 -60.5025 252° West  Level Estimated
Thu 01:17:00 PM 70.3138 -60.8589 252° West  Level Estimated
Thu 01:18:00 PM 70.2739 -61.2140 252° West  Level Estimated
Thu 01:19:00 PM 70.2333 -61.5677 251° West  Level Estimated
Thu 01:20:00 PM 70.1920 -61.9200 251° West  Level Estimated
Thu 01:21:00 PM 70.1500 -62.2708 251° West  Level Estimated
Thu 01:22:00 PM 70.1073 -62.6202 250° West  Level Estimated
Thu 01:23:00 PM 70.0640 -62.9682 250° West  Level Estimated
Thu 01:24:00 PM 70.0200 -63.3147 250° West  Level Estimated
Thu 01:25:00 PM 69.9753 -63.6598 249° West  Level Estimated
Thu 01:26:00 PM 69.9299 -64.0033 249° West  Level Estimated
Thu 01:27:00 PM 69.8839 -64.3454 249° West  Level Estimated
Thu 01:28:00 PM 69.8373 -64.6860 248° West  Level Estimated
Thu 01:29:00 PM 69.7899 -65.0250 248° West  Level Estimated
Thu 01:30:00 PM 69.7420 -65.3625 248° West  Level Estimated
Thu 01:31:00 PM 69.6938 -65.6956 248° West  Level Estimated
Thu 01:32:00 PM 69.6450 -66.0272 247° West  Level Estimated
Thu 01:33:00 PM 69.5955 -66.3572 247° West  Level Estimated
Thu 01:34:00 PM 69.5455 -66.6857 247° West  Level Estimated
Thu 01:35:00 PM 69.4948 -67.0126 246° West  Level Estimated
Thu 01:36:00 PM 69.4435 -67.3380 246° West  Level Estimated
Thu 01:37:00 PM 69.3917 -67.6618 246° West  Level Estimated
Thu 01:38:00 PM 69.3392 -67.9841 245° Southwest  Level Estimated
Thu 01:39:00 PM 69.2861 -68.3048 245° Southwest  Level Estimated
Thu 01:40:00 PM 69.2324 -68.6239 245° Southwest  Level Estimated
Thu 01:41:00 PM 69.1782 -68.9414 244° Southwest  Level Estimated
Thu 01:42:00 PM 69.1233 -69.2574 244° Southwest  Level Estimated
Thu 01:43:00 PM 69.0679 -69.5717 244° Southwest  Level Estimated
Thu 01:44:00 PM 69.0119 -69.8845 244° Southwest  Level Estimated
Thu 01:45:00 PM 68.9554 -70.1957 243° Southwest  Level Estimated
Thu 01:46:00 PM 68.8983 -70.5052 243° Southwest  Level Estimated
Thu 01:47:00 PM 68.8406 -70.8132 243° Southwest  Level Estimated
Thu 01:48:00 PM 68.7824 -71.1196 242° Southwest  Level Estimated
Thu 01:49:00 PM 68.7236 -71.4243 242° Southwest  Level Estimated
Thu 01:50:00 PM 68.6643 -71.7275 242° Southwest  Level Estimated
Thu 01:51:00 PM 68.6044 -72.0290 242° Southwest  Level Estimated
Thu 01:52:00 PM 68.5440 -72.3289 241° Southwest  Level Estimated
Thu 01:53:00 PM 68.4830 -72.6272 241° Southwest  Level Estimated
Thu 01:54:00 PM 68.4216 -72.9239 241° Southwest  Level Estimated
Thu 01:55:00 PM 68.3596 -73.2190 240° Southwest  Level Estimated
Thu 01:56:00 PM 68.2971 -73.5125 240° Southwest  Level Estimated
Thu 01:57:00 PM 68.2341 -73.8044 240° Southwest  Level Estimated
Thu 01:58:00 PM 68.1706 -74.0946 240° Southwest  Level Estimated
Thu 01:59:00 PM 68.1065 -74.3832 239° Southwest  Level Estimated
Thu 02:00:00 PM 68.0420 -74.6703 239° Southwest  Level Estimated
Thu 02:01:00 PM 67.9770 -74.9557 239° Southwest  Level Estimated
Thu 02:02:00 PM 67.9102 -75.2449 239° Southwest  Level Estimated
Thu 02:03:00 PM 67.8430 -75.5324 238° Southwest  Level Estimated
Thu 02:04:00 PM 67.7752 -75.8182 238° Southwest  Level Estimated
Thu 02:05:00 PM 67.7069 -76.1024 238° Southwest  Level Estimated
Thu 02:06:00 PM 67.6382 -76.3849 237° Southwest  Level Estimated
Thu 02:07:00 PM 67.5690 -76.6658 237° Southwest  Level Estimated
Thu 02:08:00 PM 67.4992 -76.9451 237° Southwest  Level Estimated
Thu 02:09:00 PM 67.4290 -77.2226 237° Southwest  Level Estimated
Thu 02:10:00 PM 67.3584 -77.4986 236° Southwest  Level Estimated
Thu 02:11:00 PM 67.2872 -77.7729 236° Southwest  Level Estimated
Thu 02:12:00 PM 67.2156 -78.0456 236° Southwest  Level Estimated
Thu 02:13:00 PM 67.1435 -78.3167 236° Southwest  Level Estimated
Thu 02:14:00 PM 67.0710 -78.5861 235° Southwest  Level Estimated
Thu 02:15:00 PM 66.9980 -78.8540 235° Southwest  Level Estimated
Thu 02:16:00 PM 66.9246 -79.1202 235° Southwest  Level Estimated
Thu 02:17:00 PM 66.8508 -79.3848 235° Southwest  Level Estimated
Thu 02:18:00 PM 66.7765 -79.6479 234° Southwest  Level Estimated
Thu 02:19:00 PM 66.7017 -79.9093 234° Southwest  Level Estimated
Thu 02:20:00 PM 66.6265 -80.1692 234° Southwest  Level Estimated
Thu 02:21:00 PM 66.5509 -80.4275 234° Southwest  Level Estimated
Thu 02:22:00 PM 66.4749 -80.6842 234° Southwest  Level Estimated
Thu 02:23:00 PM 66.3985 -80.9393 233° Southwest  Level Estimated
Thu 02:24:00 PM 66.3216 -81.1929 233° Southwest  Level Estimated
Thu 02:25:00 PM 66.2444 -81.4450 233° Southwest  Level Estimated
Thu 02:26:00 PM 66.1667 -81.6955 233° Southwest  Level Estimated
Thu 02:27:00 PM 66.0886 -81.9444 232° Southwest  Level Estimated
Thu 02:28:00 PM 66.0102 -82.1919 232° Southwest  Level Estimated
Thu 02:29:00 PM 65.9313 -82.4378 232° Southwest  Level Estimated
Thu 02:30:00 PM 65.8520 -82.6822 232° Southwest  Level Estimated
Thu 02:31:00 PM 65.7724 -82.9251 231° Southwest  Level Estimated
Thu 02:32:00 PM 65.6924 -83.1665 231° Southwest  Level Estimated
Thu 02:33:00 PM 65.6120 -83.4064 231° Southwest  Level Estimated
Thu 02:34:00 PM 65.5312 -83.6448 231° Southwest  Level Estimated
Thu 02:35:00 PM 65.4500 -83.8817 231° Southwest  Level Estimated
Thu 02:36:00 PM 65.3685 -84.1172 230° Southwest  Level Estimated
Thu 02:37:00 PM 65.2866 -84.3512 230° Southwest  Level Estimated
Thu 02:38:00 PM 65.2044 -84.5837 230° Southwest  Level Estimated
Thu 02:39:00 PM 65.1218 -84.8149 230° Southwest  Level Estimated
Thu 02:40:00 PM 65.0388 -85.0445 230° Southwest  Level Estimated
Thu 02:41:00 PM 64.9555 -85.2728 229° Southwest  Level Estimated
Thu 02:42:00 PM 64.8719 -85.4996 229° Southwest  Level Estimated
Thu 02:43:00 PM 64.7879 -85.7250 229° Southwest  Level Estimated
Thu 02:44:00 PM 64.7035 -85.9491 229° Southwest  Level Estimated
Thu 02:45:00 PM 64.6189 -86.1717 228° Southwest  Level Estimated
Thu 02:46:00 PM 64.5339 -86.3929 228° Southwest  Level Estimated
Thu 02:47:00 PM 64.4485 -86.6128 228° Southwest  Level Estimated
Thu 02:48:00 PM 64.3629 -86.8313 228° Southwest  Level Estimated
Thu 02:49:00 PM 64.2769 -87.0484 228° Southwest  Level Estimated
Thu 02:50:00 PM 64.1906 -87.2642 227° Southwest  Level Estimated
Thu 02:51:00 PM 64.1040 -87.4786 227° Southwest  Level Estimated
Thu 02:52:00 PM 64.0171 -87.6917 227° Southwest  Level Estimated
Thu 02:53:00 PM 63.9298 -87.9035 227° Southwest  Level Estimated
Thu 02:54:00 PM 63.8423 -88.1140 227° Southwest  Level Estimated
Thu 02:55:00 PM 63.7544 -88.3231 227° Southwest  Level Estimated
Thu 02:56:00 PM 63.6663 -88.5310 226° Southwest  Level Estimated
Thu 02:57:00 PM 63.5778 -88.7376 226° Southwest  Level Estimated
Thu 02:58:00 PM 63.4891 -88.9429 226° Southwest  Level Estimated
Thu 02:59:00 PM 63.4000 -89.1469 226° Southwest  Level Estimated
Thu 03:00:00 PM 63.3107 -89.3496 226° Southwest  Level Estimated
Thu 03:01:00 PM 63.2211 -89.5511 225° Southwest  Level Estimated
Thu 03:02:00 PM 63.1312 -89.7514 225° Southwest  Level Estimated
Thu 03:03:00 PM 63.0410 -89.9504 225° Southwest  Level Estimated
Thu 03:04:00 PM 62.9505 -90.1481 225° Southwest  Level Estimated
Thu 03:05:00 PM 62.8598 -90.3447 225° Southwest  Level Estimated
Thu 03:06:00 PM 62.7688 -90.5401 225° Southwest  Level Estimated
Thu 03:07:00 PM 62.6775 -90.7342 224° Southwest  Level Estimated
Thu 03:08:00 PM 62.5860 -90.9271 224° Southwest  Level Estimated
Thu 03:09:00 PM 62.4942 -91.1189 224° Southwest  Level Estimated
Thu 03:10:00 PM 62.4021 -91.3095 224° Southwest  Level Estimated
Thu 03:11:00 PM 62.3098 -91.4989 224° Southwest  Level Estimated
Thu 03:12:00 PM 62.2172 -91.6871 224° Southwest  Level Estimated
Thu 03:13:00 PM 62.1244 -91.8743 223° Southwest  Level Estimated
Thu 03:14:00 PM 62.0313 -92.0602 223° Southwest  Level Estimated
Thu 03:15:00 PM 61.9380 -92.2450 223° Southwest  Level Estimated
Thu 03:16:00 PM 61.8444 -92.4287 223° Southwest  Level Estimated
Thu 03:17:00 PM 61.7506 -92.6113 223° Southwest  Level Estimated
Thu 03:18:00 PM 61.6565 -92.7927 223° Southwest  Level Estimated
Thu 03:19:00 PM 61.5622 -92.9731 222° Southwest  Level Estimated
Thu 03:20:00 PM 61.4677 -93.1524 222° Southwest  Level Estimated
Thu 03:21:00 PM 61.3729 -93.3305 222° Southwest  Level Estimated
Thu 03:22:00 PM 61.2779 -93.5076 222° Southwest  Level Estimated
Thu 03:23:00 PM 61.1827 -93.6837 222° Southwest  Level Estimated
Thu 03:24:00 PM 61.0872 -93.8586 222° Southwest  Level Estimated
Thu 03:25:00 PM 60.9916 -94.0325 221° Southwest  Level Estimated
Thu 03:26:00 PM 60.8956 -94.2054 221° Southwest  Level Estimated
Thu 03:27:00 PM 60.7995 -94.3773 221° Southwest  Level Estimated
Thu 03:28:00 PM 60.7032 -94.5480 221° Southwest  Level Estimated
Thu 03:29:00 PM 60.6066 -94.7178 221° Southwest  Level Estimated
Thu 03:30:00 PM 60.5098 -94.8866 221° Southwest  Level Estimated
Thu 03:31:00 PM 60.4129 -95.0544 221° Southwest  Level Estimated
Thu 03:32:00 PM 60.3157 -95.2211 220° Southwest  Level Estimated
Thu 03:33:00 PM 60.2183 -95.3869 220° Southwest  Level Estimated
Thu 03:34:00 PM 60.1207 -95.5517 220° Southwest  Level Estimated
Thu 03:35:00 PM 60.0228 -95.7155 220° Southwest  Level Estimated
Thu 03:36:00 PM 59.9248 -95.8783 220° Southwest  Level Estimated
Thu 03:37:00 PM 59.8266 -96.0402 220° Southwest  Level Estimated
Thu 03:38:00 PM 59.7282 -96.2011 220° Southwest  Level Estimated
Thu 03:38:13 PM 62.5833 -105.2500 219° Southwest 510 587 36,000  Level Edmonton Center
Thu 03:39:00 PM 59.6296 -96.3611 219° Southwest  Level Estimated
Thu 03:39:13 PM 62.4667 -105.4000 211° Southwest 470 541 36,000  Level Edmonton Center
Thu 03:40:00 PM 59.5308 -96.5202 219° Southwest  Level Estimated
Thu 03:40:13 PM 62.3500 -105.5000 202° Southwest 460 529 36,000  Level Edmonton Center
Thu 03:41:00 PM 59.4318 -96.6783 219° Southwest  Level Estimated
Thu 03:41:13 PM 62.2500 -105.6500 215° Southwest 460 529 36,000  Level Edmonton Center
Thu 03:42:00 PM 59.3326 -96.8355 219° Southwest  Level Estimated
Thu 03:42:13 PM 62.1333 -105.7833 208° Southwest 460 529 36,000  Level Edmonton Center
Thu 03:43:00 PM 59.2333 -96.9918 219° Southwest  Level Estimated
Thu 03:43:13 PM 62.0167 -105.9000 205° Southwest 460 529 36,000  Level Edmonton Center
Thu 03:44:13 PM 61.9000 -106.0333 208° Southwest 460 529 36,000  Level Edmonton Center
Thu 03:45:13 PM 61.7833 -106.1833 211° Southwest 460 529 36,000  Level Edmonton Center
Thu 03:46:13 PM 61.6667 -106.3167 208° Southwest 460 529 36,000  Level Edmonton Center
Thu 03:47:13 PM 61.5500 -106.4500 209° Southwest 460 529 36,000  Level Edmonton Center
Thu 03:48:13 PM 61.4500 -106.5500 206° Southwest 460 529 36,000  Level Edmonton Center
Thu 03:49:13 PM 61.3167 -106.6833 206° Southwest 460 529 36,000  Level Edmonton Center
Thu 03:50:13 PM 61.2167 -106.8167 213° Southwest 460 529 36,000  Level Edmonton Center
Thu 03:51:13 PM 61.1000 -106.9167 203° Southwest 460 529 36,000  Level Edmonton Center
Thu 03:52:13 PM 60.9833 -107.0500 209° Southwest 460 529 36,000  Level Edmonton Center
Thu 03:53:13 PM 60.8667 -107.1833 209° Southwest 460 529 36,000  Level Edmonton Center
Thu 03:54:13 PM 60.7500 -107.3167 209° Southwest 460 529 36,000  Level Edmonton Center
Thu 03:55:13 PM 60.6333 -107.4167 203° Southwest 460 529 36,000  Level Edmonton Center
Thu 03:56:13 PM 60.5333 -107.5500 213° Southwest 460 529 36,000  Level Edmonton Center
Thu 03:57:13 PM 60.4000 -107.6667 203° Southwest 460 529 36,000  Level Edmonton Center
Thu 03:58:13 PM 60.2833 -107.7667 203° Southwest 460 529 36,000  Level Edmonton Center
Thu 03:59:13 PM 60.1667 -107.9333 215° Southwest 460 529 36,000  Level Edmonton Center
Thu 04:00:13 PM 60.0500 -108.0167 200° South 460 529 36,000  Level Edmonton Center
Thu 04:01:13 PM 59.9333 -108.1500 210° Southwest 460 529 36,000  Level Edmonton Center
Thu 04:02:13 PM 59.8167 -108.2667 207° Southwest 470 541 36,000  Level Edmonton Center
Thu 04:03:13 PM 59.7000 -108.3500 200° South 460 529 36,000  Level Edmonton Center
Thu 04:04:13 PM 59.5833 -108.4833 210° Southwest 470 541 36,000  Level Edmonton Center
Thu 04:05:13 PM 59.4667 -108.6000 207° Southwest 460 529 36,000  Level Edmonton Center
Thu 04:06:13 PM 59.3500 -108.7167 207° Southwest 470 541 36,000  Level Edmonton Center
Thu 04:07:13 PM 59.2167 -108.8333 204° Southwest 460 529 36,000  Level Edmonton Center
Thu 04:08:13 PM 59.1167 -108.9333 207° Southwest 460 529 36,000  Level Edmonton Center
Thu 04:09:13 PM 59.0000 -109.0500 207° Southwest 460 529 36,000  Level Edmonton Center
Thu 04:10:13 PM 58.8833 -109.1667 207° Southwest 460 529 36,000  Level Edmonton Center
Thu 04:11:13 PM 58.7500 -109.2833 204° Southwest 460 529 36,000  Level Edmonton Center
Thu 04:12:13 PM 58.6500 -109.4000 211° Southwest 460 529 36,000  Level Edmonton Center
Thu 04:13:13 PM 58.5167 -109.4833 198° South 460 529 36,000  Level Edmonton Center
Thu 04:14:13 PM 58.4000 -109.6000 208° Southwest 460 529 36,000  Level Edmonton Center
Thu 04:15:13 PM 58.3000 -109.7000 208° Southwest 460 529 36,000  Level Edmonton Center
Thu 04:16:13 PM 58.1667 -109.8167 205° Southwest 460 529 36,000  Level Edmonton Center
Thu 04:17:13 PM 58.0500 -109.9333 208° Southwest 460 529 36,000  Level Edmonton Center
Thu 04:18:13 PM 57.9333 -110.0167 201° Southwest 460 529 36,000  Level Edmonton Center
Thu 04:19:13 PM 57.8333 -110.1333 212° Southwest 460 529 36,000  Level Edmonton Center
Thu 04:20:13 PM 57.7167 -110.2333 205° Southwest 460 529 36,000  Level Edmonton Center
Thu 04:21:13 PM 57.5833 -110.3167 199° South 460 529 36,000  Level Edmonton Center
Thu 04:22:13 PM 57.4667 -110.4167 205° Southwest 460 529 36,000  Level Edmonton Center
Thu 04:23:13 PM 57.3500 -110.5333 208° Southwest 460 529 36,000  Level Edmonton Center
Thu 04:24:13 PM 57.2333 -110.6333 205° Southwest 460 529 36,000  Level Edmonton Center
Thu 04:25:13 PM 57.1167 -110.7500 209° Southwest 460 529 36,000  Level Edmonton Center
Thu 04:26:13 PM 56.9833 -110.8500 202° Southwest 460 529 36,000  Level Edmonton Center
Thu 04:27:13 PM 56.8833 -110.9333 204° Southwest 460 529 36,000  Level Edmonton Center
Thu 04:28:13 PM 56.7333 -111.0333 200° South 470 541 36,000  Level Edmonton Center
Thu 04:29:13 PM 56.6333 -111.1333 209° Southwest 470 541 36,000  Level Edmonton Center
Thu 04:30:13 PM 56.5000 -111.2333 202° Southwest 470 541 36,000  Level Edmonton Center
Thu 04:31:13 PM 56.3833 -111.3333 205° Southwest 470 541 36,000  Level Edmonton Center
Thu 04:32:13 PM 56.2833 -111.4500 213° Southwest 460 529 36,000  Level Edmonton Center
Thu 04:33:13 PM 56.1500 -111.5500 203° Southwest 470 541 36,000  Level Edmonton Center
Thu 04:34:13 PM 56.0333 -111.6500 206° Southwest 470 541 36,000  Level Edmonton Center
Thu 04:35:13 PM 55.9167 -111.7500 206° Southwest 470 541 36,000  Level Edmonton Center
Thu 04:36:13 PM 55.8000 -111.8500 206° Southwest 470 541 36,000  Level Edmonton Center
Thu 04:37:13 PM 55.6667 -111.9500 203° Southwest 470 541 36,000  Level Edmonton Center
Thu 04:38:13 PM 55.5667 -112.0500 209° Southwest 470 541 36,000  Level Edmonton Center
Thu 04:39:13 PM 55.4333 -112.1333 200° South 470 541 36,000  Level Edmonton Center
Thu 04:40:13 PM 55.3167 -112.2333 206° Southwest 470 541 36,000  Level Edmonton Center
Thu 04:41:13 PM 55.1833 -112.3333 203° Southwest 470 541 36,000  Level Edmonton Center
Thu 04:42:13 PM 55.0833 -112.4333 210° Southwest 470 541 36,000  Level Edmonton Center
Thu 04:43:13 PM 54.9500 -112.5500 207° Southwest 470 541 36,000  Level Edmonton Center
Thu 04:44:13 PM 54.8333 -112.6500 206° Southwest 470 541 36,000  Level Edmonton Center
Thu 04:45:13 PM 54.7000 -112.7167 196° South 470 541 36,000  Level Edmonton Center
Thu 04:46:13 PM 54.6000 -112.8167 210° Southwest 480 552 36,000  Level Edmonton Center
Thu 04:47:13 PM 54.4667 -112.9333 207° Southwest 480 552 36,000  Level Edmonton Center
Thu 04:52:54 PM 53.7730 -113.4370 207° Southwest 496 571 36,000  Level FlightAware
Thu 04:53:39 PM 53.6760 -113.5090 204° Southwest 491 565 36,000  Level FlightAware
Thu 04:54:24 PM 53.5840 -113.5770 204° Southwest 490 564 36,000  Level FlightAware
Thu 04:54:59 PM 53.5150 -113.6270 203° Southwest 491 565 36,000  Level FlightAware
Thu 04:55:39 PM 53.4340 -113.6850 203° Southwest 492 566 36,000  Level FlightAware
Thu 04:56:29 PM 53.3330 -113.7600 204° Southwest 36,000  Level FlightAware
Thu 04:57:09 PM 53.2480 -113.8220 204° Southwest 492 566 36,000  Level FlightAware
Thu 04:57:44 PM 53.1760 -113.8740 203° Southwest 489 563 36,000  Level FlightAware
Thu 04:58:34 PM 53.0700 -113.9440 202° Southwest 483 556 36,000  Level FlightAware
Thu 04:59:14 PM 52.9850 -114.0000 202° Southwest 482 555 36,000  Level FlightAware
Thu 04:59:59 PM 52.8900 -114.0620 201° Southwest 483 556 36,000  Level FlightAware
Thu 05:00:39 PM 52.8050 -114.1180 202° Southwest 483 556 36,000  Level FlightAware
Thu 05:01:24 PM 52.7120 -114.1790 202° Southwest 488 562 36,000  Level FlightAware
Thu 05:02:04 PM 52.6280 -114.2330 201° Southwest 488 562 36,000  Level FlightAware
Thu 05:02:44 PM 52.5440 -114.2880 202° Southwest 487 560 36,000  Level FlightAware
Thu 05:03:29 PM 52.4490 -114.3490 201° Southwest 486 559 36,000  Level FlightAware
Thu 05:04:09 PM 52.3630 -114.4040 201° Southwest 486 559 36,000  Level FlightAware
Thu 05:04:49 PM 52.2810 -114.4570 202° Southwest 483 556 36,000  Level FlightAware
Thu 05:05:34 PM 52.1890 -114.5150 201° Southwest 483 556 36,000  Level FlightAware
Thu 05:06:14 PM 52.1050 -114.5680 201° Southwest 480 552 36,000  Level FlightAware
Thu 05:06:59 PM 52.0130 -114.6270 202° Southwest 481 554 36,000  Level FlightAware
Thu 05:07:39 PM 51.9280 -114.6800 201° Southwest 481 554 36,000  Level FlightAware
Thu 05:08:24 PM 51.8360 -114.7380 201° Southwest 482 555 36,000  Level FlightAware
Thu 05:09:04 PM 51.7510 -114.7900 201° Southwest 483 556 36,000  Level FlightAware
Thu 05:09:44 PM 51.6690 -114.8410 201° Southwest 483 556 36,000  Level FlightAware
Thu 05:10:29 PM 51.5760 -114.8980 201° Southwest 484 557 36,000  Level FlightAware
Thu 05:11:09 PM 51.4910 -114.9510 201° Southwest 485 558 36,000  Level FlightAware
Thu 05:11:54 PM 51.3980 -115.0080 201° Southwest 484 557 36,000  Level FlightAware
Thu 05:12:34 PM 51.3130 -115.0600 201° Southwest 484 557 36,000  Level FlightAware
Thu 05:13:19 PM 51.2210 -115.1150 201° Southwest 483 556 36,000  Level FlightAware
Thu 05:13:59 PM 51.1350 -115.1670 201° Southwest 484 557 36,000  Level FlightAware
Thu 05:14:39 PM 51.0530 -115.2170 201° Southwest 480 552 36,000  Level FlightAware
Thu 05:15:24 PM 50.9590 -115.2730 201° Southwest 482 555 36,000  Level FlightAware
Thu 05:16:04 PM 50.8730 -115.3250 201° Southwest 481 554 36,000  Level FlightAware
Thu 05:16:49 PM 50.7780 -115.3810 200° South 483 556 36,000  Level FlightAware
Thu 05:17:24 PM 50.7040 -115.4250 201° Southwest 480 552 36,000  Level FlightAware
Thu 05:18:49 PM 50.5190 -115.5350 201° Southwest 483 556 36,000  Level FlightAware
Thu 05:20:19 PM 50.3370 -115.6400 200° South 479 551 36,000  Level FlightAware
Thu 05:20:59 PM 50.2570 -115.6870 201° Southwest 480 552 36,000  Level FlightAware
Thu 05:21:34 PM 50.1840 -115.7290 200° South 481 554 36,000  Level FlightAware
Thu 05:22:39 PM 50.0430 -115.8110 200° South 477 549 36,000  Level FlightAware
Thu 05:23:14 PM 49.9720 -115.8510 200° South 484 557 36,000  Level FlightAware
Thu 05:23:59 PM 49.8830 -115.9020 200° South 477 549 36,000  Level FlightAware
Thu 05:24:44 PM 49.7790 -115.9620 200° South 477 549 36,000  Level FlightAware
Thu 05:25:29 PM 49.6840 -116.0150 200° South 477 549 36,000  Level FlightAware
Thu 05:26:04 PM 49.6130 -116.0560 201° Southwest 482 555 36,000  Level FlightAware
Thu 05:26:49 PM 49.5200 -116.1160 203° Southwest 468 539 36,000  Level FlightAware
Thu 05:27:34 PM 49.4330 -116.1850 207° Southwest 472 543 36,000  Level FlightAware
Thu 05:28:29 PM 49.3260 -116.2720 208° Southwest 473 544 36,000  Level FlightAware
Thu 05:29:24 PM 49.2220 -116.3550 208° Southwest 476 548 36,000  Level FlightAware
Thu 05:30:09 PM 49.1400 -116.4200 207° Southwest 470 541 36,000  Level FlightAware
Thu 05:30:44 PM 49.0760 -116.4700 207° Southwest 470 541 36,000  Level FlightAware
Thu 05:31:24 PM 49.0100 -116.5210 207° Southwest 470 541 36,000  Level FlightAware
Thu 05:32:14 PM 48.9280 -116.5850 207° Southwest 470 541 36,000  Level FlightAware
Thu 05:32:54 PM 48.8620 -116.6360 207° Southwest 470 541 36,000  Level FlightAware
Thu 05:33:34 PM 48.7960 -116.6870 207° Southwest 470 541 36,000  Level FlightAware
Thu 05:34:14 PM 48.7300 -116.7380 207° Southwest 470 541 36,000  Level FlightAware
Thu 05:34:54 PM 48.6640 -116.7890 207° Southwest 470 541 36,000  Level FlightAware
Thu 05:35:44 PM 48.5820 -116.8530 207° Southwest 470 541 36,000  Level FlightAware
Thu 05:36:24 PM 48.5160 -116.9030 207° Southwest 470 541 36,000  Level FlightAware
Thu 05:37:04 PM 48.4500 -116.9540 207° Southwest 470 541 36,000  Level FlightAware
Thu 05:37:44 PM 48.3840 -117.0040 207° Southwest 470 541 36,000  Level FlightAware
Thu 05:38:24 PM 48.3180 -117.0550 207° Southwest 470 541 36,000  Level FlightAware
Thu 05:39:14 PM 48.2360 -117.1180 207° Southwest 470 541 36,000  Level FlightAware
Thu 05:39:54 PM 48.1700 -117.1680 207° Southwest 470 541 36,000  Level FlightAware
Thu 05:40:23 PM 47.9250 -117.3581 207° Southwest 484 557 36,000  Level Seattle Center
Thu 05:41:24 PM 47.8056 -117.4481 207° Southwest 485 558 36,000  Level Seattle Center
Thu 05:42:25 PM 47.6861 -117.5375 207° Southwest 487 560 36,000  Level Seattle Center
Thu 05:43:26 PM 47.5372 -117.6336 204° Southwest 493 567 36,000  Level Seattle Center
Thu 05:44:27 PM 47.4017 -117.6739 191° South 502 578 36,000  Level Seattle Center
Thu 05:45:28 PM 47.2650 -117.7142 191° South 505 581 36,000  Level Seattle Center
Thu 05:46:29 PM 47.1281 -117.7544 191° South 505 581 36,000 98 Level Seattle Center
Thu 05:47:30 PM 46.9906 -117.7936 191° South 507 583 36,200 492 Climbing Seattle Center
Thu 05:48:31 PM 46.8531 -117.8314 191° South 505 581 37,000 393 Climbing Seattle Center
Thu 05:49:32 PM 46.7156 -117.8703 191° South 505 581 37,000  Level Seattle Center
Thu 05:50:33 PM 46.5781 -117.9097 191° South 505 581 37,000  Level Seattle Center
Thu 05:51:34 PM 46.4394 -117.9489 191° South 508 585 37,000  Level Seattle Center
Thu 05:52:35 PM 46.3006 -117.9872 191° South 511 588 37,000  Level Seattle Center
Thu 05:53:36 PM 46.1611 -118.0253 191° South 511 588 37,000  Level Seattle Center
Thu 05:54:37 PM 45.9939 -118.0711 191° South 512 589 37,000  Level Seattle Center
Thu 05:55:38 PM 45.8497 -118.1122 191° South 514 592 37,000  Level Seattle Center
Thu 05:56:39 PM 45.7139 -118.1475 190° South 514 592 37,000  Level Seattle Center
Thu 05:57:39 PM 45.5722 -118.1825 190° South 517 595 37,000  Level Seattle Center
Thu 05:58:40 PM 45.4222 -118.2247 191° South 518 596 37,000  Level Seattle Center
Thu 05:59:41 PM 45.2869 -118.2617 191° South 519 597 37,000  Level Seattle Center
Thu 06:00:42 PM 45.1511 -118.2967 190° South 520 598 37,000  Level Seattle Center
Thu 06:01:13 PM 45.0600 -118.3228 191° South 521 600 37,000  Level Salt Center
Thu 06:02:15 PM 44.9228 -118.3567 190° South 522 601 37,000  Level Salt Center
Thu 06:03:17 PM 44.7636 -118.4000 191° South 522 601 37,000  Level Salt Center
Thu 06:03:45 PM 44.6950 -118.4161 189° South 521 600 37,000  Level Seattle Center
Thu 06:04:46 PM 44.5575 -118.4517 190° South 524 603 37,000  Level Seattle Center
Thu 06:05:21 PM 44.4667 -118.4761 191° South 523 602 37,000  Level Salt Center
Thu 06:06:23 PM 44.3283 -118.5117 190° South 526 605 37,000  Level Salt Center
Thu 06:06:48 PM 44.2589 -118.5286 190° South 527 606 37,000  Level Seattle Center
Thu 06:07:49 PM 44.1192 -118.5650 191° South 531 611 37,000  Level Seattle Center
Thu 06:08:26 PM 44.0314 -118.5872 190° South 525 604 37,000  Level Salt Center
Thu 06:09:28 PM 43.8922 -118.6175 189° South 527 606 37,000  Level Salt Center
Thu 06:10:30 PM 43.7314 -118.6456 187° South 524 603 37,000  Level Salt Center
Thu 06:11:32 PM 43.5928 -118.6664 186° South 524 603 37,000  Level Salt Center
Thu 06:12:34 PM 43.4292 -118.6881 185° South 527 606 37,000  Level Salt Center
Thu 06:14:38 PM 43.1322 -118.7347 187° South 524 603 37,000  Level Salt Center
Thu 06:15:40 PM 42.9931 -118.7550 186° South 526 605 37,000  Level Salt Center
Thu 06:16:41 PM 42.8289 -118.7794 186° South 529 609 37,000  Level Salt Center
Thu 06:17:43 PM 42.6894 -118.8000 186° South 529 609 37,000  Level Salt Center
Thu 06:18:45 PM 42.5267 -118.8244 186° South 527 606 37,000  Level Salt Center
Thu 06:19:47 PM 42.3794 -118.8450 186° South 526 605 37,000  Level Salt Center
Thu 06:20:49 PM 42.2397 -118.8658 186° South 526 605 37,000  Level Salt Center
Thu 06:21:50 PM 42.0764 -118.8892 186° South 528 608 37,000  Level Salt Center
Thu 06:22:52 PM 41.9361 -118.9097 186° South 530 610 37,000  Level Salt Center
Thu 06:23:54 PM 41.7967 -118.9306 186° South 526 605 37,000  Level Salt Center
Thu 06:24:56 PM 41.6339 -118.9531 186° South 528 608 37,000  Level Salt Center
Thu 06:25:58 PM 41.4956 -118.9719 186° South 525 604 37,000  Level Salt Center
Thu 06:26:59 PM 41.3325 -118.9950 186° South 526 605 37,000  Level Salt Center
Thu 06:28:01 PM 41.1931 -119.0150 186° South 526 605 37,000  Level Salt Center
Thu 06:29:03 PM 41.0331 -119.0378 186° South 522 601 37,000  Level Salt Center
Thu 06:30:05 PM 40.8953 -119.0556 186° South 521 600 37,000  Level Salt Center
Thu 06:30:25 PM 40.8514 -119.0614 186° South 521 600 37,000  Level Oakland Center
Thu 06:31:26 PM 40.6989 -119.0822 186° South 521 600 37,000  Level Oakland Center
Thu 06:32:27 PM 40.5558 -119.1000 185° South 519 597 37,000  Level Oakland Center
Thu 06:33:28 PM 40.4150 -119.1161 185° South 510 587 37,000  Level Oakland Center
Thu 06:34:30 PM 40.2725 -119.1331 185° South 513 590 37,000  Level Oakland Center
Thu 06:40:09 PM 39.4650 -119.2280 185° South 497 572 37,000  Level FlightAware
Thu 06:40:49 PM 39.3710 -119.2390 185° South 497 572 37,000  Level FlightAware
Thu 06:41:29 PM 39.2710 -119.2510 185° South 504 580 37,000  Level FlightAware
Thu 06:42:04 PM 39.2280 -119.2560 185° South 504 580 37,000  Level FlightAware
Thu 06:43:09 PM 39.0770 -119.2730 185° South 505 581 37,000  Level FlightAware
Thu 06:44:14 PM 38.9250 -119.2900 185° South 500 575 37,000  Level FlightAware
Thu 06:44:59 PM 38.8290 -119.3010 185° South 500 575 37,000  Level FlightAware
Thu 06:45:44 PM 38.6800 -119.3180 185° South 499 574 37,000  Level FlightAware
Thu 06:46:24 PM 38.5830 -119.3300 186° South 498 573 37,000  Level FlightAware
Thu 06:47:09 PM 38.4760 -119.3420 185° South 498 573 37,000  Level FlightAware
Thu 06:47:49 PM 38.3880 -119.3520 185° South 497 572 37,000  Level FlightAware
Thu 06:48:34 PM 38.2810 -119.3640 185° South 498 573 37,000  Level FlightAware
Thu 06:49:14 PM 38.1900 -119.3740 185° South 495 570 37,000  Level FlightAware
Thu 06:49:44 PM 38.1240 -119.3810 185° South 495 570 37,000  Level FlightAware
Thu 06:50:24 PM 38.0430 -119.3890 184° South 495 570 37,000  Level FlightAware
Thu 06:51:04 PM 37.9480 -119.4010 186° South 499 574 37,000  Level FlightAware
Thu 06:51:49 PM 37.8370 -119.4130 185° South 496 571 37,000  Level FlightAware
Thu 06:52:29 PM 37.7470 -119.4230 185° South 495 570 37,000  Level FlightAware
Thu 06:53:14 PM 37.6420 -119.4350 185° South 494 568 37,000  Level FlightAware
Thu 06:53:54 PM 37.5500 -119.4450 185° South 496 571 37,000  Level FlightAware
Thu 06:54:34 PM 37.4590 -119.4550 185° South 496 571 37,000  Level FlightAware
Thu 06:55:19 PM 37.3530 -119.4670 185° South 495 570 37,000  Level FlightAware
Thu 06:55:59 PM 37.2650 -119.4760 185° South 496 571 37,000  Level FlightAware
Thu 06:56:39 PM 37.1740 -119.4860 185° South 496 571 37,000  Level FlightAware
Thu 06:57:24 PM 37.0700 -119.4980 185° South 496 571 37,000  Level FlightAware
Thu 06:58:04 PM 36.9790 -119.5080 185° South 495 570 37,000  Level FlightAware
Thu 06:58:49 PM 36.8780 -119.5190 185° South 493 567 37,000  Level FlightAware
Thu 06:59:29 PM 36.7850 -119.5290 185° South 493 567 37,000  Level FlightAware
Thu 07:00:14 PM 36.6810 -119.5400 185° South 494 568 37,000  Level FlightAware
Thu 07:00:54 PM 36.5900 -119.5500 185° South 495 570 37,000  Level FlightAware
Thu 07:01:34 PM 36.5000 -119.5590 185° South 494 568 37,000  Level FlightAware
Thu 07:02:19 PM 36.3970 -119.5700 185° South 494 568 37,000  Level FlightAware
Thu 07:02:59 PM 36.3060 -119.5800 185° South 492 566 37,000  Level FlightAware
Thu 07:03:44 PM 36.2050 -119.5910 185° South 491 565 37,000  Level FlightAware
Thu 07:04:24 PM 36.1140 -119.6010 185° South 492 566 37,000  Level FlightAware
Thu 07:05:04 PM 36.0240 -119.6100 185° South 493 567 37,000  Level FlightAware
Thu 07:05:49 PM 35.9210 -119.5880 170° South 498 573 37,000 -212 Level FlightAware
Thu 07:06:29 PM 35.8330 -119.5550 163° South 492 566 36,700 -988 Descending FlightAware
Thu 07:07:14 PM 35.7350 -119.5580 181° South 489 563 35,600 -1,412 Descending FlightAware
Thu 07:07:54 PM 35.6430 -119.5710 187° South 489 563 34,700 -1,425 Descending FlightAware
Thu 07:08:34 PM 35.5540 -119.5870 188° South 490 564 33,700 -1,482 Descending FlightAware
Thu 07:09:19 PM 35.4520 -119.6070 189° South 492 566 32,600 -1,412 Descending FlightAware
Thu 07:09:59 PM 35.3620 -119.6230 188° South 494 568 31,700 -1,453 Descending FlightAware
Thu 07:10:54 PM 35.2390 -119.6220 180° South 502 578 30,300 -1,260 Descending FlightAware
Thu 07:11:39 PM 35.1450 -119.5610 152° Southeast 492 566 29,600 -1,271 Descending FlightAware
Thu 07:12:19 PM 35.0690 -119.5050 149° Southeast 478 550 28,500 -1,976 Descending FlightAware
Thu 07:13:04 PM 34.9840 -119.4420 149° Southeast 476 548 26,800 -1,694 Descending FlightAware
Thu 07:13:44 PM 34.9160 -119.3780 142° Southeast 468 539 26,100 -1,350 Descending FlightAware
Thu 07:14:24 PM 34.8480 -119.3110 141° Southeast 460 529 25,000 -1,906 Descending FlightAware
Thu 07:15:09 PM 34.7720 -119.2390 142° Southeast 451 519 23,400 -2,188 Descending FlightAware
Thu 07:15:49 PM 34.7060 -119.1770 142° Southeast 442 509 21,900 -2,118 Descending FlightAware
Thu 07:16:34 PM 34.6350 -119.1130 143° Southeast 434 499 20,400 -2,100 Descending FlightAware
Thu 07:17:09 PM 34.5760 -119.0640 146° Southeast 428 493 19,100 -975 Descending FlightAware
Thu 07:17:54 PM 34.5120 -119.0120 146° Southeast 428 493 19,100 -1,380 Level FlightAware
Thu 07:18:49 PM 34.4300 -118.9420 145° Southeast 413 475 16,800 -2,365 Descending FlightAware
Thu 07:20:44 PM 34.2320 -118.8350 156° South 356 410 12,400 -1,880 Descending FlightAware
Thu 07:21:19 PM 34.1820 -118.8170 163° South 350 403 12,100 -1,200 Descending FlightAware
Thu 07:22:09 PM 34.1030 -118.7880 163° South 329 379 10,700 -1,200 Descending FlightAware
Thu 07:22:49 PM 34.0510 -118.7580 154° Southeast 301 346 10,300 -655 Descending FlightAware
Thu 07:23:04 PM 34.0420 -118.7400 121° Southeast 295 339 10,100 -600 Descending FlightAware
Thu 07:23:29 PM 34.0410 -118.7000 92° East 290 334 9,900 -218 Descending FlightAware
Thu 07:23:59 PM 34.0490 -118.6470 80° East 293 337 9,900  Level FlightAware
Thu 07:24:29 PM 34.0560 -118.6000 80° East 293 337 9,900  Level FlightAware
Thu 07:25:09 PM 34.0610 -118.5420 84° East 294 338 9,900  Level FlightAware
Thu 07:25:39 PM 34.0650 -118.5000 83° East 294 338 9,900 -2,040 Level FlightAware
Thu 07:25:59 PM 34.0550 -118.4580 106° East 291 335 8,200 -2,836 Descending FlightAware
Thu 07:26:34 PM 34.0470 -118.4060 101° East 285 328 7,300 -1,700 Descending FlightAware
Thu 07:26:59 PM 34.0410 -118.3650 100° East 285 328 6,500 -1,855 Descending FlightAware
Thu 07:27:29 PM 34.0340 -118.3140 99° East 270 311 5,600 -1,500 Descending FlightAware
Thu 07:27:59 PM 34.0280 -118.2720 100° East 239 275 5,000 -1,114 Descending FlightAware
Thu 07:28:39 PM 34.0250 -118.2240 94° East 198 228 4,300 -1,059 Descending FlightAware
Thu 07:29:24 PM 34.0120 -118.1860 112° Southeast 186 214 3,500 -1,271 Descending FlightAware
Thu 07:30:04 PM 33.9840 -118.2000 203° Southwest 184 212 2,500 -1,200 Descending FlightAware
Thu 07:30:34 PM 33.9730 -118.2250 242° Southwest 181 208 2,100 -436 Descending FlightAware
Thu 07:30:59 PM 33.9670 -118.2530 256° West 176 203 2,100  Level FlightAware
Thu 07:31:19 PM 33.9650 -118.2760 264° West 180 207 2,100 -646 Level FlightAware
Thu 07:32:04 PM 33.9610 -118.3170 263° West 158 182 1,400 -600 Descending FlightAware
Thu 07:32:29 PM 33.9590 -118.3380 263° West 158 182 1,400 -522 Level FlightAware
Thu 07:32:50 PM 33.9500 -118.3500 263° West 136 157 1,000 -774 Descending Southern TRACON
Thu 07:34:02 PM 33.9525 -118.3986 274° West 144 166 200 -667 Descending Los Center
Thu 07:36:00 PM 33.9333 -118.4000 228° Southwest  Level FlightAware

Login

Don't have an account? Register now (free) for customized features, flight alerts, and more!